• Join FlightAware (Why Join?)
  • Login
  • US Flag 
11:07PM EDT


 

Airport Tracker/Info


-or-


 

Live Flight TrackerFlight Track Log ✈ N568TT ✈ 08-May-2013 ✈ KTRM - KMRY

Flight Track Log - Related Links

Times and Time Zones

All times are in EDT time to prevent confusion due to time zone crossing. See the N568TT flight status page for this flight to view local times or setup timezone preferences in your user account.

Time Position Orientation Groundspeed Altitude Reporting Facility
EDT Latitude Longitude Course Direction KTS MPH feet Rate Location/Type
02:07PM 33.6225 -116.2494 304° West 167 192 7,000  Level Los Angeles Center
02:08PM 33.6725 -116.2672 344° North 183 211 8,900 1,440 Climbing Los Angeles Center
02:09PM 33.7200 -116.2947 334° Northwest 185 213 10,000 1,200 Climbing Los Angeles Center
02:10PM 33.7919 -116.3381 333° Northwest 228 262 11,400 1,500 Climbing Los Angeles Center
02:11PM 33.8458 -116.3703 334° Northwest 226 260 13,200 1,740 Climbing Los Angeles Center
02:12PM 33.9611 -116.7578 304° West  Level Estimated
02:12PM 33.8961 -116.3992 335° Northwest 203 234 15,000  Level Los Angeles Center
02:13PM 33.9489 -116.4303 334° Northwest 209 241 16,000 1,020 Climbing Los Angeles Center
02:14PM 34.0100 -116.4647 335° Northwest 239 275 17,200 1,200 Climbing Los Angeles Center
02:15PM 34.0667 -116.4967 335° Northwest 226 260 18,600 1,440 Climbing Los Angeles Center
02:16PM 34.1269 -116.5325 334° Northwest 215 247 20,200 1,260 Climbing Los Angeles Center
02:17PM 34.1833 -116.5533 343° North 219 252 21,300 840 Climbing Los Angeles Center
02:18PM 34.2203 -116.6083 309° West 217 250 22,000 300 Climbing Los Angeles Center
02:19PM 34.2469 -116.7000 289° West 238 274 22,000  Level Los Angeles Center
02:20PM 34.2703 -116.7811 289° West 253 291 22,000  Level Los Angeles Center
02:21PM 34.2928 -116.8639 288° West 257 296 22,000  Level Los Angeles Center
02:22PM 34.3172 -116.9469 290° West 258 297 22,000  Level Los Angeles Center
02:23PM 34.3406 -117.0275 289° West 259 298 22,000  Level Los Angeles Center
02:24PM 34.3625 -117.1117 288° West 261 300 22,000  Level Los Angeles Center
02:26PM 34.3919 -117.2081 290° West 258 297 22,000  Level Los Angeles Center
02:27PM 34.4136 -117.2922 287° West 259 298 22,000  Level Los Angeles Center
02:28PM 34.4367 -117.3756 289° West 261 300 22,000  Level Los Angeles Center
02:29PM 34.4617 -117.4586 290° West 262 302 22,000  Level Los Angeles Center
02:30PM 34.4836 -117.5414 288° West 260 299 22,000  Level Los Angeles Center
02:31PM 34.5072 -117.6231 289° West 259 298 22,000  Level Los Angeles Center
02:32PM 34.5347 -117.7219 289° West 257 296 22,000  Level Los Angeles Center
02:33PM 34.5578 -117.8047 289° West 259 298 22,000  Level Los Angeles Center
02:34PM 34.5825 -117.8883 290° West 258 297 22,000  Level Los Angeles Center
02:35PM 34.6000 -117.9528 288° West 258 297 22,000  Level Los Angeles Center
02:36PM 34.6267 -118.0525 288° West 258 297 22,000  Level Los Angeles Center
02:37PM 34.6636 -118.1281 301° West 259 298 22,000  Level Los Angeles Center
02:38PM 34.7058 -118.1994 306° West 258 297 22,000  Level Los Angeles Center
02:39PM 34.7556 -118.2886 304° West 264 304 22,000  Level Los Angeles Center
02:40PM 34.7958 -118.3611 304° West 260 299 22,000  Level Los Angeles Center
02:41PM 34.8361 -118.4333 304° West 259 298 22,000  Level Los Angeles Center
02:42PM 34.8794 -118.5131 304° West 259 298 22,100  Climbing Los Angeles Center
02:43PM 34.9153 -118.5753 305° West 253 291 22,100 -60 Level Los Angeles Center
02:44PM 34.9650 -118.6628 305° West 260 299 22,000 -60 Descending Los Angeles Center
02:45PM 35.0042 -118.7358 303° West 258 297 22,000  Level Los Angeles Center
02:46PM 35.0661 -118.7856 327° Northwest 266 306 22,000  Level Los Angeles Center
02:47PM 35.1258 -118.8356 326° Northwest 263 303 22,000  Level Los Angeles Center
02:48PM 35.1636 -118.9111 301° West 257 296 22,100  Climbing Los Angeles Center
02:49PM 35.2092 -118.9972 303° West 253 291 22,000 -60 Descending Los Angeles Center
02:50PM 35.2475 -119.0700 303° West 253 291 22,000  Level Los Angeles Center
02:51PM 35.2847 -119.1433 302° West 253 291 22,000  Level Los Angeles Center
02:52PM 35.3219 -119.2175 302° West 255 293 22,000  Level Los Angeles Center
02:53PM 35.3606 -119.2894 303° West 254 292 22,000  Level Los Angeles Center
02:55PM 35.3981 -119.3639 302° West 257 296 22,000  Level Los Angeles Center
02:55PM 35.4186 -119.4064 301° West 253 291 22,000  Level Oakland Center
02:56PM 35.4578 -119.4792 303° West 256 295 22,000  Level Oakland Center
02:57PM 35.5033 -119.5681 302° West 257 296 22,000  Level Oakland Center
02:58PM 35.5419 -119.6439 302° West 261 300 22,000  Level Oakland Center
03:00PM 35.5975 -119.7519 302° West 264 304 22,000  Level Los Angeles Center
03:00PM 35.6194 -119.7967 301° West 265 305 22,000  Level Oakland Center
03:01PM 35.6589 -119.8722 303° West 265 305 22,000  Level Oakland Center
03:02PM 35.6978 -119.9492 302° West 266 306 22,000  Level Oakland Center
03:03PM 35.7364 -120.0256 302° West 265 305 22,000  Level Oakland Center
03:04PM 35.7825 -120.1189 301° West 270 311 22,000 -240 Level Oakland Center
03:05PM 35.8219 -120.1961 302° West 271 312 21,600 -1,020 Descending Oakland Center
03:06PM 35.8589 -120.2861 297° West 290 334 20,000 -1,620 Descending Oakland Center
03:07PM 35.8972 -120.3811 297° West 310 357 18,400 -1,500 Descending Oakland Center
03:08PM 35.9336 -120.4689 297° West 294 338 17,000 -1,560 Descending Oakland Center
03:09PM 35.9678 -120.5531 297° West 279 321 15,300 -1,380 Descending Oakland Center
03:10PM 36.0028 -120.6386 297° West 282 325 14,300 -840 Descending Oakland Center
03:11PM 36.0369 -120.7225 297° West 276 318 13,600 -780 Descending Oakland Center
03:12PM 36.0775 -120.8222 297° West 273 314 12,800 -660 Descending Oakland Center
03:13PM 36.1103 -120.9056 296° West 271 312 12,300 -540 Descending Oakland Center
03:15PM 36.1403 -120.9789 297° West 246 283 11,800 -540 Descending Oakland Center
03:16PM 36.1689 -121.0497 297° West 235 270 11,300 -540 Descending Oakland Center
03:17PM 36.1919 -121.1275 290° West 240 276 10,800 -600 Descending Oakland Center
03:18PM 36.2169 -121.2061 292° West 246 283 10,200 -420 Descending Oakland Center
03:19PM 36.2400 -121.2847 290° West 247 284 10,000 -120 Descending Oakland Center
03:20PM 36.2664 -121.3589 294° West 239 275 10,000  Level Oakland Center
03:21PM 36.2908 -121.4408 290° West 250 288 10,000 -480 Level Oakland Center
03:22PM 36.3222 -121.5378 292° West 255 293 9,100 -960 Descending Oakland Center
03:23PM 36.3492 -121.6125 294° West 243 280 8,100 -600 Descending Oakland Center
03:24PM 36.3747 -121.6817 295° West 226 260 7,900 -360 Descending Oakland Center
03:25PM 36.4306 -121.7000 345° North 216 249 7,400 -540 Descending Oakland Center
03:26PM 36.4522 -121.6517 61° Northeast 188 216 6,800 -660 Descending Oakland Center
03:27PM 36.4511 -121.5953 91° East 170 196 6,100 -540 Descending Oakland Center
03:28PM 36.4969 -121.5856 10° North 184 212 5,800 -1,140 Descending Oakland Center
03:29PM 36.5333 -121.6833 295° West 241 277 3,700 -1,620 Descending Northern Cal TRACON
03:30PM 36.5500 -121.7500 287° West 203 234 2,300 -1,440 Descending Northern Cal TRACON